Time;durP1;ratioP1;P1;durP2;ratioP2;P2;SDS_P1;SDS_P2;PMS_P1;PMS_P2;Temp;Humidity;BMP_temperature;BMP_pressure;BME280_temperature;BME280_humidity;BME280_pressure;Samples;Min_cycle;Max_cycle;Signal;HPM_P1;HPM_P2
2021/11/17 02:26:55;;;;;;;88.88;34.78;;;6.00;99.90;;;;;;4189414;28;20047;-80
2021/11/17 02:29:45;;;;;;;91.45;34.88;;;6.00;99.90;;;;;;4171810;28;20037;-82
2021/11/17 02:32:21;;;;;;;77.18;33.10;;;6.10;99.90;;;;;;4168478;28;20048;-81
2021/11/17 02:34:34;;;;;;;89.30;32.75;;;6.10;99.90;;;;;;4177935;28;20073;-82
2021/11/17 02:36:59;;;;;;;83.18;35.63;;;6.10;99.90;;;;;;4184821;28;20481;-80
2021/11/17 02:39:45;;;;;;;81.40;32.20;;;6.10;99.90;;;;;;4187313;28;20667;-83
2021/11/17 02:43:00;;;;;;;86.68;34.10;;;6.10;99.90;;;;;;4151517;28;20409;-83
2021/11/17 02:45:20;;;;;;;88.22;32.88;;;6.10;99.90;;;;;;4175636;28;20049;-82
2021/11/17 02:48:16;;;;;;;95.88;33.80;;;6.00;99.90;;;;;;4185450;28;20424;-81
2021/11/17 02:50:51;;;;;;;82.22;34.08;;;6.00;99.90;;;;;;4189149;28;20032;-81
2021/11/17 02:53:11;;;;;;;89.22;31.80;;;6.00;99.90;;;;;;4163335;28;20040;-81
2021/11/17 02:55:43;;;;;;;85.50;35.40;;;6.00;99.90;;;;;;4185426;28;20041;-81
2021/11/17 02:58:08;;;;;;;99.43;35.35;;;6.00;99.90;;;;;;4189734;28;20036;-80
2021/11/17 03:00:54;;;;;;;89.70;36.28;;;6.00;99.90;;;;;;4186579;28;20106;-81
2021/11/17 03:03:20;;;;;;;93.05;36.15;;;6.00;99.90;;;;;;4164902;28;20051;-81
2021/11/17 03:05:51;;;;;;;93.20;38.63;;;6.00;99.90;;;;;;4155608;28;20050;-80
2021/11/17 03:08:17;;;;;;;88.43;35.08;;;6.00;99.90;;;;;;4181968;28;20052;-80
2021/11/17 03:11:03;;;;;;;82.10;37.33;;;6.00;99.90;;;;;;4188070;28;20569;-80
2021/11/17 03:13:38;;;;;;;84.32;33.60;;;6.10;99.90;;;;;;4156790;28;20042;-80
2021/11/17 03:15:57;;;;;;;83.93;35.63;;;6.20;99.90;;;;;;4152389;28;20049;-81
2021/11/17 03:18:15;;;;;;;87.47;34.55;;;6.20;99.90;;;;;;4163483;28;20079;-80
2021/11/17 03:20:56;;;;;;;82.85;35.58;;;6.20;99.90;;;;;;4180045;28;20025;-80
2021/11/17 03:23:18;;;;;;;74.78;31.40;;;6.10;99.90;;;;;;4173828;28;20101;-80
2021/11/17 03:25:25;;;;;;;74.53;30.52;;;6.20;99.90;;;;;;4171478;28;20076;-80
2021/11/17 03:28:15;;;;;;;72.10;31.42;;;6.30;99.90;;;;;;4194297;28;20047;-81
2021/11/17 03:31:07;;;;;;;72.97;31.48;;;6.30;99.90;;;;;;4170938;28;20036;-80
2021/11/17 03:33:45;;;;;;;72.88;30.08;;;6.20;99.90;;;;;;4175581;28;20487;-80
2021/11/17 03:36:24;;;;;;;68.15;29.52;;;6.30;99.90;;;;;;4175333;28;20041;-82
2021/11/17 03:38:56;;;;;;;75.93;33.03;;;6.40;99.90;;;;;;4185614;28;20436;-80
2021/11/17 03:41:12;;;;;;;76.65;34.58;;;6.20;99.90;;;;;;4178854;28;20051;-80
2021/11/17 03:43:46;;;;;;;89.35;36.45;;;6.20;99.90;;;;;;4169700;28;20038;-80
2021/11/17 03:46:17;;;;;;;75.72;30.58;;;6.20;99.90;;;;;;4189552;28;20032;-81
2021/11/17 03:48:26;;;;;;;66.60;30.23;;;6.30;99.90;;;;;;4171166;28;20477;-80
2021/11/17 03:50:39;;;;;;;64.53;27.52;;;6.40;99.90;;;;;;4175657;28;20039;-81
2021/11/17 03:53:12;;;;;;;70.93;31.92;;;6.30;99.90;;;;;;4176532;28;20080;-80
2021/11/17 03:55:41;;;;;;;72.60;32.75;;;6.40;99.90;;;;;;4166577;28;20037;-80
2021/11/17 03:58:51;;;;;;;70.43;31.55;;;6.30;99.90;;;;;;4168484;28;20048;-82
2021/11/17 04:01:32;;;;;;;60.78;26.67;;;6.40;99.90;;;;;;4167497;28;20068;-79
2021/11/17 04:03:55;;;;;;;68.55;28.63;;;6.50;99.90;;;;;;4194165;28;20048;-81
2021/11/17 04:06:30;;;;;;;73.13;31.15;;;6.40;99.90;;;;;;4182895;28;20036;-80
2021/11/17 04:08:55;;;;;;;76.03;31.95;;;6.40;99.90;;;;;;4199475;28;20407;-82
2021/11/17 04:11:28;;;;;;;81.32;31.58;;;6.40;99.90;;;;;;4181473;28;20049;-81
2021/11/17 04:14:16;;;;;;;71.13;30.80;;;6.30;99.90;;;;;;4175451;28;20037;-80
2021/11/17 04:17:17;;;;;;;70.57;29.30;;;6.40;99.90;;;;;;4184549;28;20052;-79
2021/11/17 04:19:56;;;;;;;71.88;29.13;;;6.30;99.90;;;;;;4169711;28;20033;-80
2021/11/17 04:22:22;;;;;;;71.07;30.83;;;6.40;99.90;;;;;;4159906;28;20084;-80
2021/11/17 04:24:31;;;;;;;74.47;29.05;;;6.40;99.90;;;;;;4204421;28;20036;-80
2021/11/17 04:27:07;;;;;;;76.05;31.40;;;6.30;99.90;;;;;;4180341;28;20048;-80
2021/11/17 04:29:28;;;;;;;75.55;31.42;;;6.30;99.90;;;;;;4176927;28;20196;-80
2021/11/17 04:32:10;;;;;;;72.50;31.33;;;6.20;99.90;;;;;;4186172;28;20041;-79
2021/11/17 04:34:58;;;;;;;74.80;30.98;;;6.30;99.90;;;;;;4174470;28;20496;-82
2021/11/17 04:37:44;;;;;;;74.65;32.40;;;6.30;99.90;;;;;;4185255;28;20113;-82
2021/11/17 04:40:20;;;;;;;72.35;31.67;;;6.30;99.90;;;;;;4186065;28;20196;-82
2021/11/17 04:42:59;;;;;;;80.53;32.90;;;6.20;99.90;;;;;;4162055;28;20471;-81
2021/11/17 04:45:24;;;;;;;86.72;29.58;;;6.20;99.90;;;;;;4160917;28;20136;-81
2021/11/17 04:48:04;;;;;;;79.40;30.48;;;6.10;99.90;;;;;;4173950;28;20033;-81
2021/11/17 04:50:28;;;;;;;83.38;32.33;;;6.10;99.90;;;;;;4166362;28;20040;-79
2021/11/17 04:52:47;;;;;;;85.93;32.20;;;6.10;99.90;;;;;;4178875;28;20098;-79
2021/11/17 04:54:54;;;;;;;82.40;31.10;;;5.90;99.90;;;;;;4141476;28;20042;-80
2021/11/17 04:57:18;;;;;;;72.82;30.42;;;5.90;99.90;;;;;;4180712;28;20463;-79
2021/11/17 04:59:38;;;;;;;83.10;33.78;;;5.90;99.90;;;;;;4176822;28;20197;-80
2021/11/17 05:02:11;;;;;;;86.90;32.17;;;5.80;99.90;;;;;;4193276;28;20384;-79
2021/11/17 05:04:59;;;;;;;72.70;28.80;;;5.80;99.90;;;;;;4178501;28;20029;-80
2021/11/17 05:07:37;;;;;;;75.90;29.90;;;5.90;99.90;;;;;;4175204;28;21552;-82
2021/11/17 05:09:53;;;;;;;93.80;32.03;;;5.90;99.90;;;;;;4182594;28;20068;-80
2021/11/17 05:12:29;;;;;;;86.03;34.00;;;5.80;99.90;;;;;;4183870;28;20040;-79
2021/11/17 05:15:13;;;;;;;91.28;31.70;;;5.80;99.90;;;;;;4184946;28;20064;-80
2021/11/17 05:18:16;;;;;;;91.47;32.70;;;5.70;99.90;;;;;;4162237;28;20049;-79
2021/11/17 05:20:39;;;;;;;90.60;30.48;;;5.80;99.90;;;;;;4177812;28;20048;-80
2021/11/17 05:23:27;;;;;;;91.45;35.28;;;5.90;99.90;;;;;;4187518;28;20044;-80
2021/11/17 05:26:27;;;;;;;88.20;32.13;;;6.00;99.90;;;;;;4154831;28;20077;-80
2021/11/17 05:29:21;;;;;;;89.53;31.98;;;6.00;99.90;;;;;;4182911;28;20036;-80
2021/11/17 05:31:53;;;;;;;94.03;32.90;;;6.00;99.90;;;;;;4172166;28;20033;-80
2021/11/17 05:34:24;;;;;;;78.03;32.55;;;6.00;99.90;;;;;;4182988;28;20605;-82
2021/11/17 05:36:59;;;;;;;83.97;33.33;;;6.00;99.90;;;;;;4170696;28;20524;-80
2021/11/17 05:39:21;;;;;;;84.32;32.78;;;6.10;99.90;;;;;;4176049;28;20036;-80
2021/11/17 05:41:56;;;;;;;91.90;36.05;;;6.10;99.90;;;;;;4185306;28;20423;-79
2021/11/17 05:44:12;;;;;;;83.25;32.42;;;6.10;99.90;;;;;;4161999;28;20148;-79
2021/11/17 05:46:44;;;;;;;77.10;31.20;;;6.20;99.90;;;;;;4153415;28;20026;-79
2021/11/17 05:49:10;;;;;;;87.43;32.17;;;6.20;99.90;;;;;;4176835;28;20044;-79
2021/11/17 05:51:33;;;;;;;82.38;31.52;;;6.20;99.90;;;;;;4173565;28;20029;-80
2021/11/17 05:53:57;;;;;;;83.70;35.80;;;6.20;99.90;;;;;;4168918;28;20108;-79
2021/11/17 05:56:25;;;;;;;73.40;28.02;;;6.30;99.90;;;;;;4176732;28;20047;-80
2021/11/17 05:59:06;;;;;;;68.05;27.45;;;6.40;99.90;;;;;;4142129;28;20041;-80
2021/11/17 06:01:47;;;;;;;74.13;30.13;;;6.50;99.90;;;;;;4159257;28;20025;-79
2021/11/17 06:03:58;;;;;;;80.82;31.73;;;6.50;99.90;;;;;;4185210;28;20036;-80
2021/11/17 06:05:59;;;;;;;68.00;28.23;;;6.40;99.90;;;;;;4186223;28;20102;-80
2021/11/17 06:07:59;;;;;;;71.85;31.02;;;6.50;99.90;;;;;;4196012;28;20036;-80
2021/11/17 06:10:28;;;;;;;75.78;32.50;;;6.50;99.90;;;;;;4190946;28;20407;-79
2021/11/17 06:12:31;;;;;;;71.40;34.72;;;6.50;99.90;;;;;;4181573;28;20033;-79
2021/11/17 06:14:40;;;;;;;75.63;32.63;;;6.60;99.90;;;;;;4181820;28;20143;-80
2021/11/17 06:16:46;;;;;;;82.97;32.28;;;6.50;99.90;;;;;;4173889;28;20075;-79
2021/11/17 06:18:48;;;;;;;83.15;31.70;;;6.50;99.90;;;;;;4175814;28;20037;-79
2021/11/17 06:20:49;;;;;;;80.65;33.88;;;6.50;99.90;;;;;;4186370;28;20491;-80
2021/11/17 06:22:59;;;;;;;78.40;34.38;;;6.50;99.90;;;;;;4184713;28;20071;-79
2021/11/17 06:25:09;;;;;;;76.85;34.13;;;6.50;99.90;;;;;;4178318;28;20034;-81
2021/11/17 06:27:16;;;;;;;81.57;34.90;;;6.60;99.90;;;;;;4186862;28;20494;-80
2021/11/17 06:29:23;;;;;;;78.38;32.85;;;6.50;99.90;;;;;;4175016;28;20029;-80
2021/11/17 06:31:36;;;;;;;68.25;30.52;;;6.50;99.90;;;;;;4178381;28;20110;-81
2021/11/17 06:33:37;;;;;;;80.97;31.60;;;6.60;99.90;;;;;;4184423;28;20112;-80
2021/11/17 06:35:40;;;;;;;64.57;31.65;;;6.60;99.90;;;;;;4188891;28;20055;-82
2021/11/17 06:37:41;;;;;;;70.45;31.85;;;6.70;99.90;;;;;;4182559;28;20033;-79
2021/11/17 06:39:47;;;;;;;78.13;35.13;;;6.70;99.90;;;;;;4186275;28;20392;-79
2021/11/17 06:41:49;;;;;;;83.25;36.15;;;6.70;99.90;;;;;;4193060;28;20531;-80
2021/11/17 06:43:51;;;;;;;79.85;33.58;;;6.60;99.90;;;;;;4181671;28;20059;-79
2021/11/17 06:45:55;;;;;;;70.68;31.85;;;6.60;99.90;;;;;;4192486;28;20067;-79
2021/11/17 06:47:59;;;;;;;79.35;34.00;;;6.60;99.90;;;;;;4169822;28;20042;-81
2021/11/17 06:49:59;;;;;;;82.82;34.05;;;6.70;99.90;;;;;;4174318;28;20033;-79
2021/11/17 06:52:03;;;;;;;77.88;33.10;;;6.80;99.90;;;;;;4165729;28;20033;-79
2021/11/17 06:54:04;;;;;;;70.50;32.65;;;6.80;99.90;;;;;;4170089;28;20044;-80
2021/11/17 06:56:05;;;;;;;82.45;34.60;;;6.70;99.90;;;;;;4183715;28;20033;-79
2021/11/17 06:58:06;;;;;;;80.18;35.13;;;6.80;99.90;;;;;;4167807;28;20033;-80
2021/11/17 07:00:11;;;;;;;82.82;34.25;;;6.80;99.90;;;;;;4182603;28;20025;-80
2021/11/17 07:02:12;;;;;;;77.88;31.85;;;6.80;99.90;;;;;;4180629;28;20028;-80
2021/11/17 07:04:14;;;;;;;70.70;32.05;;;7.00;99.90;;;;;;4176893;28;20028;-80
2021/11/17 07:06:16;;;;;;;72.95;31.02;;;7.00;99.90;;;;;;4158182;28;20046;-79
2021/11/17 07:08:17;;;;;;;69.18;29.55;;;7.00;99.90;;;;;;4168663;28;20481;-82
2021/11/17 07:10:18;;;;;;;67.55;29.48;;;7.10;99.90;;;;;;4173355;28;20124;-80
2021/11/17 07:12:21;;;;;;;68.40;32.05;;;7.10;99.90;;;;;;4170147;28;20520;-82
2021/11/17 07:14:24;;;;;;;75.22;32.00;;;7.10;99.90;;;;;;4173698;28;20076;-80
2021/11/17 07:16:25;;;;;;;81.50;37.25;;;7.10;99.90;;;;;;4164896;28;20053;-80
2021/11/17 07:18:26;;;;;;;74.72;31.02;;;7.00;99.90;;;;;;4184016;28;20789;-81
2021/11/17 07:20:28;;;;;;;80.70;33.10;;;7.00;99.90;;;;;;4164482;28;20042;-81
2021/11/17 07:22:29;;;;;;;78.88;36.33;;;7.10;99.90;;;;;;4181379;28;20033;-82
2021/11/17 07:24:31;;;;;;;75.53;31.88;;;7.10;99.90;;;;;;4173424;28;20215;-80
2021/11/17 07:26:32;;;;;;;82.05;33.00;;;7.10;99.90;;;;;;4181539;28;20133;-82
2021/11/17 07:28:39;;;;;;;78.55;35.90;;;7.10;99.90;;;;;;4170969;28;20056;-81
2021/11/17 07:30:44;;;;;;;74.47;34.17;;;7.10;99.90;;;;;;4178808;28;20033;-81
2021/11/17 07:32:52;;;;;;;73.32;33.08;;;7.10;99.90;;;;;;4166284;28;20576;-82
2021/11/17 07:34:54;;;;;;;84.07;35.53;;;7.20;99.90;;;;;;4192935;28;20037;-83
2021/11/17 07:36:54;;;;;;;81.40;35.67;;;7.10;99.90;;;;;;4195140;28;20045;-82
2021/11/17 07:39:16;;;;;;;77.78;35.80;;;7.10;99.90;;;;;;4175060;28;20048;-83
2021/11/17 07:41:17;;;;;;;90.40;38.17;;;7.10;99.90;;;;;;4178455;28;20144;-83
2021/11/17 07:43:27;;;;;;;86.80;38.38;;;7.10;99.90;;;;;;4202396;28;20107;-82
2021/11/17 07:45:28;;;;;;;90.40;37.33;;;7.10;99.90;;;;;;4183881;28;20036;-82
2021/11/17 07:47:29;;;;;;;91.43;38.13;;;7.10;99.90;;;;;;4192760;28;20562;-82
2021/11/17 07:49:31;;;;;;;87.38;40.70;;;7.10;99.90;;;;;;4170285;28;20051;-84
2021/11/17 07:51:32;;;;;;;88.30;37.53;;;7.20;99.90;;;;;;4192857;28;20369;-84
2021/11/17 07:53:34;;;;;;;87.15;39.03;;;7.30;99.90;;;;;;4194821;28;20298;-84
2021/11/17 07:55:39;;;;;;;85.47;36.72;;;7.40;99.90;;;;;;4195454;28;20040;-83
2021/11/17 07:57:45;;;;;;;80.47;39.92;;;7.50;99.90;;;;;;4188795;28;20208;-83
2021/11/17 07:59:46;;;;;;;84.20;36.60;;;7.60;99.90;;;;;;4197189;28;20388;-83
2021/11/17 08:01:50;;;;;;;79.82;38.05;;;7.60;99.90;;;;;;4174478;28;20037;-83
2021/11/17 08:03:51;;;;;;;92.82;40.13;;;7.60;99.90;;;;;;4166371;28;20103;-84
2021/11/17 08:05:58;;;;;;;93.70;39.97;;;7.60;99.90;;;;;;4178011;28;20452;-83
2021/11/17 08:08:00;;;;;;;100.20;41.22;;;7.50;99.90;;;;;;4185057;28;20484;-83
2021/11/17 08:10:05;;;;;;;95.03;40.75;;;7.50;99.90;;;;;;4178399;28;20121;-82
2021/11/17 08:12:19;;;;;;;88.70;40.00;;;7.60;99.90;;;;;;4169744;28;20412;-83
2021/11/17 08:14:21;;;;;;;87.80;40.60;;;7.60;99.90;;;;;;4172499;28;20037;-84
2021/11/17 08:16:23;;;;;;;92.85;39.20;;;7.70;99.90;;;;;;4182548;28;20041;-83
2021/11/17 08:18:26;;;;;;;89.32;39.25;;;7.70;99.90;;;;;;4161883;28;20469;-83
2021/11/17 08:20:29;;;;;;;96.35;40.40;;;7.80;99.90;;;;;;4187916;28;20078;-83
2021/11/17 08:22:29;;;;;;;83.15;35.47;;;7.80;99.90;;;;;;4175205;28;20049;-83
2021/11/17 08:24:30;;;;;;;98.68;43.25;;;7.90;99.90;;;;;;4172690;28;20583;-83
2021/11/17 08:26:32;;;;;;;98.00;41.47;;;8.00;99.90;;;;;;4191881;28;20504;-83
2021/11/17 08:28:33;;;;;;;97.50;42.75;;;7.90;99.90;;;;;;4180422;28;20040;-83
2021/11/17 08:30:35;;;;;;;100.20;42.78;;;7.90;99.90;;;;;;4176620;28;20033;-83
2021/11/17 08:32:42;;;;;;;113.60;44.45;;;7.90;99.90;;;;;;4171582;28;20480;-83
2021/11/17 08:34:42;;;;;;;91.00;41.40;;;7.90;99.90;;;;;;4197080;28;20040;-83
2021/11/17 08:36:44;;;;;;;99.68;43.88;;;7.90;99.90;;;;;;4186756;28;20063;-83
2021/11/17 08:38:54;;;;;;;97.03;37.45;;;7.90;99.90;;;;;;4178597;28;20190;-83
2021/11/17 08:41:02;;;;;;;96.00;41.70;;;8.00;99.90;;;;;;4193751;28;20052;-84
2021/11/17 08:43:04;;;;;;;108.63;41.95;;;8.00;99.90;;;;;;4186214;28;20377;-83
2021/11/17 08:45:16;;;;;;;86.15;40.45;;;8.00;99.90;;;;;;4186368;28;20367;-82
2021/11/17 08:47:19;;;;;;;106.90;46.17;;;8.10;99.90;;;;;;4201698;28;20105;-83
2021/11/17 08:49:26;;;;;;;109.53;46.00;;;8.00;99.90;;;;;;4182155;28;20389;-82
2021/11/17 08:51:37;;;;;;;108.82;44.33;;;7.90;99.90;;;;;;4169719;28;20394;-83
2021/11/17 08:54:00;;;;;;;117.22;46.75;;;7.80;99.90;;;;;;4162474;28;20413;-83
2021/11/17 08:56:07;;;;;;;135.40;46.20;;;7.80;99.90;;;;;;4181349;28;20045;-82
2021/11/17 08:58:23;;;;;;;120.75;49.70;;;7.90;99.90;;;;;;4165419;28;20284;-83
2021/11/17 09:00:25;;;;;;;137.38;49.90;;;7.90;99.90;;;;;;4182138;28;20560;-83
2021/11/17 09:02:26;;;;;;;121.28;48.15;;;7.90;99.90;;;;;;4190919;28;20093;-83
2021/11/17 09:04:33;;;;;;;121.47;47.38;;;8.00;99.90;;;;;;4196921;28;20031;-83
2021/11/17 09:06:38;;;;;;;120.32;47.05;;;8.00;99.90;;;;;;4189240;28;20051;-83
2021/11/17 09:08:41;;;;;;;139.25;52.22;;;8.00;99.90;;;;;;4197637;28;20036;-84
2021/11/17 09:10:49;;;;;;;128.75;48.72;;;8.00;99.90;;;;;;4186617;28;20210;-83
2021/11/17 09:12:52;;;;;;;117.03;47.03;;;8.00;99.90;;;;;;4195196;28;20047;-84
2021/11/17 09:14:54;;;;;;;130.23;49.15;;;8.00;99.90;;;;;;4181529;28;20091;-84
2021/11/17 09:17:09;;;;;;;110.05;48.70;;;8.00;99.90;;;;;;4179219;28;20142;-84
2021/11/17 09:19:17;;;;;;;106.20;46.13;;;8.10;99.90;;;;;;4191002;28;20052;-84
2021/11/17 09:21:32;;;;;;;104.28;40.80;;;8.10;99.90;;;;;;4196981;28;20081;-83
2021/11/17 09:23:33;;;;;;;96.38;41.70;;;8.20;99.90;;;;;;4185656;28;20503;-84
2021/11/17 09:25:56;;;;;;;91.28;38.20;;;8.30;99.90;;;;;;4154044;28;20045;-84
2021/11/17 09:28:01;;;;;;;85.13;39.65;;;8.20;99.90;;;;;;4179284;28;20666;-85
2021/11/17 09:30:15;;;;;;;86.03;37.78;;;8.20;99.90;;;;;;4203622;28;20061;-84
2021/11/17 09:32:16;;;;;;;85.80;37.15;;;8.20;99.90;;;;;;4188743;28;20036;-85
2021/11/17 09:34:19;;;;;;;89.63;39.47;;;8.30;99.90;;;;;;4191551;28;20055;-86
2021/11/17 09:36:37;;;;;;;94.78;39.95;;;8.30;99.90;;;;;;4193391;28;20043;-83
2021/11/17 09:38:42;;;;;;;107.85;43.75;;;8.40;99.90;;;;;;4178644;28;20508;-86
2021/11/17 09:40:51;;;;;;;103.68;45.38;;;8.50;99.90;;;;;;4174021;28;20041;-86
2021/11/17 09:42:54;;;;;;;93.35;39.97;;;8.50;99.90;;;;;;4167931;28;20108;-87
2021/11/17 09:44:56;;;;;;;95.97;44.80;;;8.60;99.90;;;;;;4166176;28;20036;-87
2021/11/17 09:47:05;;;;;;;119.05;50.33;;;8.60;99.90;;;;;;4186066;28;20071;-85
2021/11/17 09:49:38;;;;;;;105.90;46.38;;;8.60;99.90;;;;;;4186473;28;20042;-86
2021/11/17 09:51:57;;;;;;;124.47;46.88;;;8.60;99.90;;;;;;4173297;28;20127;-86
2021/11/17 09:54:15;;;;;;;110.60;45.20;;;8.60;99.90;;;;;;4188397;28;20093;-84
2021/11/17 09:56:29;;;;;;;121.85;49.30;;;8.70;99.90;;;;;;4177799;28;20033;-84
2021/11/17 09:58:39;;;;;;;104.68;45.42;;;8.70;99.90;;;;;;4166011;28;20124;-85
2021/11/17 10:00:59;;;;;;;117.68;47.63;;;8.70;99.90;;;;;;4177548;28;20061;-87
2021/11/17 10:03:37;;;;;;;122.57;49.63;;;8.80;99.90;;;;;;4174647;28;20076;-87
2021/11/17 10:06:38;;;;;;;124.63;50.88;;;8.70;99.90;;;;;;4189679;28;20044;-84
2021/11/17 10:13:30;;;;;;;;;;;8.70;99.90;;;;;;4181449;28;19920;-85
2021/11/17 10:15:42;;;;;;;101.45;40.13;;;8.70;99.90;;;;;;4195233;28;19924;-84
2021/11/17 10:18:32;;;;;;;102.97;40.67;;;8.70;99.90;;;;;;4187439;28;20040;-86
2021/11/17 10:21:04;;;;;;;119.35;47.33;;;8.80;99.90;;;;;;4177484;28;20033;-85
2021/11/17 10:23:07;;;;;;;112.63;45.22;;;8.80;99.90;;;;;;4203759;28;20111;-85
2021/11/17 10:25:17;;;;;;;114.25;47.80;;;8.90;99.90;;;;;;4185533;28;20094;-85
2021/11/17 10:27:27;;;;;;;120.88;50.25;;;8.90;99.90;;;;;;4172468;28;20025;-85
2021/11/17 10:29:39;;;;;;;128.52;49.53;;;9.00;99.90;;;;;;4189309;28;20041;-86
2021/11/17 10:32:19;;;;;;;113.90;47.85;;;9.10;99.90;;;;;;4195035;28;20032;-86
2021/11/17 10:34:54;;;;;;;101.30;44.38;;;9.30;99.90;;;;;;4177335;28;20155;-85
2021/11/17 10:38:02;;;;;;;119.97;47.35;;;9.40;99.90;;;;;;4190073;28;20039;-85
2021/11/17 10:40:26;;;;;;;117.55;50.05;;;9.50;99.90;;;;;;4163543;28;20415;-84
2021/11/17 10:42:43;;;;;;;103.03;49.10;;;9.60;99.90;;;;;;4178829;28;20033;-84
2021/11/17 10:45:09;;;;;;;106.90;45.35;;;9.70;99.90;;;;;;4185329;28;20066;-87
2021/11/17 10:47:35;;;;;;;94.57;44.72;;;9.90;99.90;;;;;;4179087;28;20051;-87
2021/11/17 10:49:41;;;;;;;106.72;50.55;;;10.00;99.90;;;;;;4176566;28;20033;-84
2021/11/17 10:52:05;;;;;;;96.60;43.70;;;10.00;99.90;;;;;;4170031;28;20148;-83
2021/11/17 10:54:22;;;;;;;90.45;43.13;;;10.10;99.90;;;;;;4161796;28;20041;-84
2021/11/17 10:56:28;;;;;;;86.22;39.28;;;10.20;99.90;;;;;;4193831;28;20032;-84
2021/11/17 10:58:37;;;;;;;83.28;44.80;;;10.30;99.90;;;;;;4182336;28;20028;-83
2021/11/17 11:01:04;;;;;;;91.18;42.70;;;10.50;99.90;;;;;;4181370;28;20036;-87
2021/11/17 11:03:15;;;;;;;75.40;38.92;;;10.80;99.90;;;;;;4198060;28;20029;-86
2021/11/17 11:05:23;;;;;;;77.53;40.88;;;11.00;99.90;;;;;;4165271;28;20044;-85
2021/11/17 11:07:34;;;;;;;72.50;37.38;;;11.20;99.90;;;;;;4189318;28;20024;-87
2021/11/17 11:10:00;;;;;;;73.35;40.20;;;11.20;99.90;;;;;;4182902;28;20037;-83
2021/11/17 11:12:04;;;;;;;76.13;39.40;;;11.30;99.90;;;;;;4165066;28;20692;-84
2021/11/17 11:14:16;;;;;;;72.28;37.78;;;11.50;99.90;;;;;;4192096;28;20028;-85
2021/11/17 11:16:26;;;;;;;69.15;39.35;;;11.80;99.90;;;;;;4176171;28;20500;-85
2021/11/17 11:18:41;;;;;;;64.03;36.22;;;11.90;99.90;;;;;;4191865;28;20029;-86
2021/11/17 11:21:05;;;;;;;69.30;36.70;;;11.90;99.90;;;;;;4189253;28;20071;-84
2021/11/17 11:24:06;;;;;;;67.90;34.63;;;11.80;99.90;;;;;;4179601;28;20144;-82
2021/11/17 11:26:19;;;;;;;64.05;34.67;;;11.90;99.90;;;;;;4198018;28;20480;-85
2021/11/17 11:28:38;;;;;;;62.90;34.05;;;11.90;99.90;;;;;;4177060;28;20108;-82
2021/11/17 11:30:39;;;;;;;63.50;35.58;;;11.90;99.90;;;;;;4194904;28;20108;-83
2021/11/17 11:32:51;;;;;;;66.35;35.08;;;11.70;99.90;;;;;;4151740;28;20675;-83
2021/11/17 11:35:02;;;;;;;65.82;38.10;;;11.60;99.90;;;;;;4171657;28;20381;-82
2021/11/17 11:37:28;;;;;;;62.30;32.50;;;11.70;99.90;;;;;;4171601;28;20598;-82
2021/11/17 11:39:35;;;;;;;53.15;31.67;;;11.90;99.90;;;;;;4187663;28;20050;-82
2021/11/17 11:42:09;;;;;;;59.03;33.38;;;12.00;99.90;;;;;;4204839;28;20128;-82
2021/11/17 11:44:20;;;;;;;57.83;29.83;;;12.00;99.90;;;;;;4195510;28;20086;-81
2021/11/17 11:46:33;;;;;;;59.17;31.48;;;11.70;99.90;;;;;;4191250;28;20067;-83
2021/11/17 11:48:43;;;;;;;55.60;33.33;;;11.60;99.90;;;;;;4160352;28;20521;-82
2021/11/17 11:50:57;;;;;;;65.40;34.30;;;11.60;99.90;;;;;;4177723;28;20105;-83
2021/11/17 11:53:39;;;;;;;62.22;34.65;;;11.60;99.90;;;;;;4180344;28;20451;-84
2021/11/17 11:56:27;;;;;;;57.20;32.25;;;11.70;99.90;;;;;;4200835;28;20054;-83
2021/11/17 11:58:28;;;;;;;59.83;31.50;;;12.10;99.90;;;;;;4164728;28;20500;-84
2021/11/17 12:00:40;;;;;;;49.15;27.13;;;12.50;99.90;;;;;;4182605;28;20051;-86
2021/11/17 12:02:59;;;;;;;47.88;29.05;;;13.10;99.90;;;;;;4186513;28;20033;-83
2021/11/17 12:05:07;;;;;;;44.60;25.10;;;14.00;99.90;;;;;;4185770;28;20039;-83
2021/11/17 12:07:15;;;;;;;41.17;23.75;;;14.80;99.90;;;;;;4176897;28;20073;-84
2021/11/17 12:09:37;;;;;;;38.33;22.88;;;15.10;99.90;;;;;;4178931;28;20059;-82
2021/11/17 12:11:50;;;;;;;45.90;23.50;;;14.50;99.90;;;;;;4182673;28;20036;-84
2021/11/17 12:14:10;;;;;;;36.47;23.90;;;14.00;99.90;;;;;;4172582;28;20191;-83
2021/11/17 12:16:23;;;;;;;37.40;20.70;;;13.50;99.90;;;;;;4175041;28;20333;-84
2021/11/17 12:18:25;;;;;;;35.50;21.73;;;13.00;99.90;;;;;;4164555;28;20496;-82
2021/11/17 12:20:33;;;;;;;39.88;22.30;;;12.70;99.90;;;;;;4169316;28;20037;-82
2021/11/17 12:22:46;;;;;;;48.05;25.08;;;12.50;99.90;;;;;;4189977;28;20064;-82
2021/11/17 12:24:53;;;;;;;41.55;22.85;;;12.40;99.90;;;;;;4175160;28;20120;-82
2021/11/17 12:27:22;;;;;;;50.03;24.25;;;12.20;99.90;;;;;;4201778;28;20098;-81
2021/11/17 12:29:30;;;;;;;37.30;20.20;;;12.20;99.90;;;;;;4189041;28;20075;-81
2021/11/17 12:31:52;;;;;;;41.20;20.67;;;12.20;99.90;;;;;;4166450;28;20026;-82
2021/11/17 12:34:16;;;;;;;36.00;19.92;;;12.20;99.90;;;;;;4159309;28;20041;-82
2021/11/17 12:36:31;;;;;;;40.58;20.63;;;12.30;99.90;;;;;;4187563;28;20064;-83
2021/11/17 12:38:35;;;;;;;37.60;18.83;;;12.60;99.90;;;;;;4184824;28;20037;-81
2021/11/17 12:40:52;;;;;;;34.60;18.17;;;13.30;99.90;;;;;;4183680;28;20028;-81
2021/11/17 12:42:58;;;;;;;25.42;14.70;;;14.10;99.90;;;;;;4163039;28;20088;-81
2021/11/17 12:45:19;;;;;;;28.35;16.65;;;14.40;99.90;;;;;;4175223;28;20091;-81
2021/11/17 12:47:41;;;;;;;36.28;19.05;;;14.50;99.90;;;;;;4207676;28;20112;-81
2021/11/17 12:50:09;;;;;;;36.90;18.48;;;14.00;99.90;;;;;;4187337;28;20098;-81
2021/11/17 12:52:34;;;;;;;33.67;18.40;;;13.30;99.90;;;;;;4177973;28;20037;-82
2021/11/17 12:54:54;;;;;;;37.53;18.52;;;12.80;99.90;;;;;;4174436;28;20489;-81
2021/11/17 12:57:27;;;;;;;28.73;16.50;;;13.00;99.90;;;;;;4178851;28;20128;-82
2021/11/17 12:59:49;;;;;;;27.48;15.75;;;13.90;99.90;;;;;;4191016;28;20039;-82
2021/11/17 13:02:07;;;;;;;34.10;17.15;;;14.30;99.90;;;;;;4163000;28;20128;-82
2021/11/17 13:04:38;;;;;;;28.98;14.57;;;14.30;99.90;;;;;;4183946;28;20085;-82
2021/11/17 13:06:41;;;;;;;29.20;14.35;;;14.70;99.90;;;;;;4176905;28;20029;-81
2021/11/17 13:08:43;;;;;;;25.35;14.05;;;14.90;99.90;;;;;;4177215;28;20072;-82
2021/11/17 13:11:05;;;;;;;34.33;13.55;;;14.70;99.90;;;;;;4153791;28;20037;-82
2021/11/17 13:13:27;;;;;;;23.27;10.93;;;14.60;99.90;;;;;;4167653;28;20804;-82
2021/11/17 13:15:50;;;;;;;26.40;12.27;;;14.80;99.90;;;;;;4171966;28;20100;-81
2021/11/17 13:17:54;;;;;;;18.38;9.88;;;14.80;99.90;;;;;;4168464;28;20045;-81
2021/11/17 13:19:59;;;;;;;28.55;9.95;;;14.70;99.90;;;;;;4188949;28;20039;-81
2021/11/17 13:22:28;;;;;;;20.40;7.95;;;14.60;99.90;;;;;;4182311;28;20118;-81
2021/11/17 13:24:42;;;;;;;20.77;7.50;;;14.70;99.90;;;;;;4183325;28;20065;-81
2021/11/17 13:26:49;;;;;;;21.08;7.35;;;15.00;99.90;;;;;;4187548;28;20120;-81
2021/11/17 13:28:51;;;;;;;27.92;7.95;;;15.10;99.90;;;;;;4179182;28;20033;-80
2021/11/17 13:30:54;;;;;;;20.65;7.63;;;15.00;99.90;;;;;;4151927;28;20046;-80
2021/11/17 13:32:59;;;;;;;20.42;6.47;;;14.70;99.90;;;;;;4183932;28;20037;-81
2021/11/17 13:35:32;;;;;;;18.30;7.22;;;14.40;99.90;;;;;;4174912;28;20043;-82
2021/11/17 13:37:40;;;;;;;20.65;6.55;;;13.90;99.90;;;;;;4179226;28;20391;-81
2021/11/17 13:39:41;;;;;;;21.50;6.07;;;13.60;99.90;;;;;;4170399;28;20040;-80
2021/11/17 13:41:50;;;;;;;27.40;6.57;;;13.30;99.90;;;;;;4166915;28;20037;-81
2021/11/17 13:43:57;;;;;;;19.55;6.43;;;13.00;99.90;;;;;;4172143;28;20432;-80
2021/11/17 13:46:05;;;;;;;20.08;6.60;;;12.70;99.90;;;;;;4181402;28;20407;-81
2021/11/17 13:48:07;;;;;;;21.33;5.70;;;12.60;99.90;;;;;;4184114;28;20045;-80
2021/11/17 13:50:10;;;;;;;27.58;6.22;;;12.50;99.90;;;;;;4170937;28;20041;-81
2021/11/17 13:52:16;;;;;;;17.73;6.75;;;12.50;99.90;;;;;;4192273;28;20032;-80
2021/11/17 13:54:17;;;;;;;27.65;6.38;;;12.70;99.90;;;;;;4169373;28;20071;-81
2021/11/17 13:56:29;;;;;;;22.27;7.43;;;13.00;99.90;;;;;;4176751;28;20091;-81
2021/11/17 13:58:36;;;;;;;17.08;5.18;;;13.30;99.90;;;;;;4186733;28;20043;-81
2021/11/17 14:00:41;;;;;;;23.23;5.50;;;13.40;99.90;;;;;;4179376;28;20029;-80
2021/11/17 14:02:49;;;;;;;15.88;4.28;;;13.40;99.90;;;;;;4162918;28;20616;-79
2021/11/17 14:04:51;;;;;;;26.33;6.00;;;13.50;99.90;;;;;;4160315;28;20075;-82
2021/11/17 14:06:55;;;;;;;17.55;4.57;;;13.40;99.90;;;;;;4185477;28;20052;-82
2021/11/17 14:08:56;;;;;;;17.80;5.78;;;13.10;99.90;;;;;;4172933;28;20041;-79
2021/11/17 14:10:58;;;;;;;23.92;5.60;;;12.80;99.90;;;;;;4174421;28;20361;-81